createdAt,value
2019-03-27T00:00:53.091Z,81.40
2019-03-27T00:03:25.028Z,81.80
2019-03-27T00:05:58.022Z,82.70
2019-03-27T00:08:29.644Z,82.40
2019-03-27T00:11:02.834Z,82.40
2019-03-27T00:13:38.381Z,82.30
2019-03-27T00:16:10.252Z,82.00
2019-03-27T00:18:41.726Z,82.00
2019-03-27T00:21:12.839Z,82.20
2019-03-27T00:23:44.550Z,82.60
2019-03-27T00:26:17.047Z,83.40
2019-03-27T00:28:48.947Z,83.90
2019-03-27T00:31:20.404Z,83.20
2019-03-27T00:33:52.254Z,84.60
2019-03-27T00:36:24.323Z,84.00
2019-03-27T00:38:55.753Z,84.20
2019-03-27T00:42:33.651Z,84.50
2019-03-27T00:45:32.049Z,84.50
2019-03-27T00:48:10.890Z,84.90
2019-03-27T00:50:48.965Z,85.50
2019-03-27T00:53:29.796Z,85.00
2019-03-27T00:56:29.278Z,85.20
2019-03-27T00:59:46.489Z,85.90
2019-03-27T01:02:51.090Z,86.40
2019-03-27T01:05:43.943Z,86.40
2019-03-27T01:08:24.525Z,86.50
2019-03-27T01:11:01.247Z,86.20
2019-03-27T01:13:47.495Z,86.50
2019-03-27T01:16:33.392Z,86.70
2019-03-27T01:19:14.794Z,87.10
2019-03-27T01:21:47.135Z,87.50
2019-03-27T01:24:20.231Z,88.00
2019-03-27T01:26:53.427Z,88.70
2019-03-27T01:29:24.865Z,89.00
2019-03-27T01:31:56.051Z,89.40
2019-03-27T01:34:27.465Z,90.00
2019-03-27T02:03:07.077Z,91.70
2019-03-27T02:05:38.504Z,92.10
2019-03-27T02:08:10.404Z,92.60
2019-03-27T02:10:41.899Z,92.90
2019-03-27T02:13:13.402Z,92.90
2019-03-27T02:15:45.244Z,92.90
2019-03-27T02:18:16.984Z,92.80
2019-03-27T02:20:48.861Z,93.00
2019-03-27T02:23:20.622Z,93.90
2019-03-27T02:25:52.994Z,93.90
2019-03-27T02:28:25.161Z,94.10
2019-03-27T02:30:56.975Z,94.10
2019-03-27T02:33:28.141Z,94.70
2019-03-27T02:35:59.951Z,94.80
2019-03-27T02:38:31.996Z,94.90
2019-03-27T02:41:03.553Z,94.90
2019-03-27T02:43:34.719Z,95.10
2019-03-27T02:46:23.354Z,95.30
2019-03-27T02:48:40.068Z,95.70
2019-03-27T02:51:11.909Z,96.00
2019-03-27T02:53:43.364Z,96.80
2019-03-27T02:56:19.313Z,97.30
2019-03-27T02:58:51.603Z,97.60
2019-03-27T03:01:23.364Z,97.90
2019-03-27T03:03:55.724Z,98.10
2019-03-27T03:06:29.845Z,98.50
2019-03-27T03:09:01.360Z,98.90
2019-03-27T03:11:33.901Z,99.30
2019-03-27T03:14:05.433Z,99.20
2019-03-27T03:16:53.150Z,99.30
2019-03-27T03:19:25.023Z,99.70
2019-03-27T03:21:56.554Z,99.60
2019-03-27T03:24:28.307Z,99.90
2019-03-27T03:26:59.752Z,99.80
2019-03-27T03:29:30.908Z,99.90
2019-03-27T03:32:02.465Z,99.90
2019-03-27T03:34:34.996Z,99.90
2019-03-27T03:37:06.521Z,99.90
2019-03-27T03:39:38.747Z,99.90
2019-03-27T03:42:10.549Z,99.90
2019-03-27T03:44:42.446Z,99.90
2019-03-27T03:47:14.225Z,99.90
2019-03-27T03:49:46.626Z,99.90
2019-03-27T03:52:19.909Z,99.90
2019-03-27T03:54:53.834Z,99.90
2019-03-27T03:57:27.361Z,99.90
2019-03-27T04:00:02.538Z,99.90
2019-03-27T04:02:36.671Z,99.90
2019-03-27T04:05:08.559Z,99.90
2019-03-27T04:07:49.979Z,99.90
2019-03-27T04:10:22.015Z,99.90
2019-03-27T04:12:53.407Z,99.90
2019-03-27T04:15:25.421Z,99.90
2019-03-27T04:17:57.251Z,99.90
2019-03-27T04:20:28.986Z,99.90
2019-03-27T04:23:00.752Z,99.90
2019-03-27T04:26:06.342Z,99.90
2019-03-27T04:28:05.376Z,99.90
2019-03-27T04:30:37.465Z,99.90
2019-03-27T04:33:10.046Z,99.90
2019-03-27T04:35:41.506Z,99.90
2019-03-27T04:38:12.860Z,99.90
2019-03-27T04:40:44.385Z,99.90
2019-03-27T04:43:16.137Z,99.90
2019-03-27T04:45:48.332Z,99.90
2019-03-27T04:48:20.190Z,99.90
2019-03-27T04:50:51.579Z,99.90
2019-03-27T04:53:24.608Z,99.90
2019-03-27T04:55:56.054Z,99.90
2019-03-27T04:58:28.128Z,99.90
2019-03-27T05:01:05.729Z,99.90
2019-03-27T05:03:37.495Z,99.90
2019-03-27T05:06:09.269Z,99.90
2019-03-27T05:08:41.432Z,99.90
2019-03-27T05:11:13.261Z,99.90
2019-03-27T05:13:55.118Z,99.90
2019-03-27T05:16:26.562Z,99.90
2019-03-27T05:18:58.445Z,99.90
2019-03-27T05:21:29.591Z,99.90
2019-03-27T05:24:05.154Z,99.90
2019-03-27T05:26:36.607Z,99.90
2019-03-27T05:29:08.358Z,99.90
2019-03-27T05:31:39.748Z,99.90
2019-03-27T05:34:11.182Z,99.90
2019-03-27T05:36:43.330Z,99.90
2019-03-27T05:39:15.224Z,99.90
2019-03-27T05:41:46.979Z,99.90
2019-03-27T05:44:18.721Z,99.90
2019-03-27T05:46:56.015Z,99.90
2019-03-27T05:52:20.008Z,99.90
2019-03-27T05:54:55.212Z,99.90
2019-03-27T05:57:27.682Z,99.90
2019-03-27T05:59:59.402Z,99.90
2019-03-27T06:02:31.154Z,99.90
2019-03-27T06:05:03.223Z,99.90
2019-03-27T06:07:35.674Z,99.90
2019-03-27T06:10:07.427Z,99.90
2019-03-27T06:12:39.083Z,99.90
2019-03-27T06:15:11.129Z,99.90
2019-03-27T06:17:42.323Z,99.90
2019-03-27T06:20:13.864Z,99.90
2019-03-27T06:22:45.394Z,99.90
2019-03-27T06:25:16.535Z,99.90
2019-03-27T06:27:47.680Z,99.90
2019-03-27T06:30:19.294Z,99.90
2019-03-27T06:32:51.900Z,99.90
2019-03-27T06:35:23.961Z,99.90
2019-03-27T06:37:55.098Z,99.90
2019-03-27T06:40:26.815Z,99.90
2019-03-27T06:42:59.378Z,99.90
2019-03-27T06:45:30.742Z,99.90
2019-03-27T06:48:02.439Z,99.90
2019-03-27T06:50:33.822Z,99.90
2019-03-27T06:53:05.742Z,99.00
2019-03-27T06:55:37.149Z,98.50
2019-03-27T06:58:08.890Z,97.70
2019-03-27T07:00:40.359Z,96.00
2019-03-27T07:03:12.275Z,93.80
2019-03-27T07:05:43.736Z,91.30
2019-03-27T07:08:15.137Z,88.90
2019-03-27T07:10:46.505Z,86.50
2019-03-27T07:13:18.519Z,86.10
2019-03-27T07:15:50.417Z,84.30
2019-03-27T07:18:21.913Z,82.50
2019-03-27T07:20:53.340Z,82.10
2019-03-27T07:23:24.778Z,80.70
2019-03-27T07:25:56.434Z,77.00
2019-03-27T07:28:27.856Z,76.90
2019-03-27T07:30:59.656Z,76.90
2019-03-27T07:33:31.387Z,75.60
2019-03-27T07:36:02.778Z,75.70
2019-03-27T07:38:34.870Z,75.90
2019-03-27T07:41:06.316Z,74.20
2019-03-27T07:43:37.760Z,71.00
2019-03-27T07:46:08.894Z,70.10
2019-03-27T07:48:52.916Z,67.80
2019-03-27T07:51:13.703Z,68.80
2019-03-27T07:53:45.514Z,68.70
2019-03-27T07:56:17.203Z,69.50
2019-03-27T07:58:48.362Z,69.10
2019-03-27T08:01:20.309Z,68.30
2019-03-27T08:03:52.899Z,66.10
2019-03-27T08:06:24.685Z,65.00
2019-03-27T08:08:56.685Z,65.00
2019-03-27T08:11:28.895Z,62.90
2019-03-27T08:14:00.642Z,62.90
2019-03-27T08:16:32.024Z,61.60
2019-03-27T08:19:07.906Z,60.50
2019-03-27T08:21:37.570Z,59.70
2019-03-27T08:24:08.965Z,57.60
2019-03-27T08:26:40.456Z,58.40
2019-03-27T08:29:12.940Z,59.00
2019-03-27T08:31:45.279Z,58.50
2019-03-27T08:34:17.069Z,59.00
2019-03-27T08:36:48.849Z,57.80
2019-03-27T08:39:24.441Z,59.00
2019-03-27T08:41:56.241Z,57.50
2019-03-27T08:44:27.453Z,58.10
2019-03-27T08:46:59.257Z,57.90
2019-03-27T08:49:30.691Z,58.10
2019-03-27T08:52:03.474Z,56.90
2019-03-27T08:54:34.744Z,55.60
2019-03-27T08:57:07.082Z,57.20
2019-03-27T08:59:38.490Z,58.40
2019-03-27T09:02:10.211Z,58.50
2019-03-27T09:04:41.875Z,57.20
2019-03-27T09:07:13.617Z,56.20
2019-03-27T09:09:45.535Z,57.70
2019-03-27T09:12:16.950Z,59.10
2019-03-27T09:14:48.069Z,58.30
2019-03-27T09:17:19.202Z,55.50
2019-03-27T09:19:51.516Z,55.30
2019-03-27T09:22:23.273Z,55.80
2019-03-27T09:24:54.968Z,55.50
2019-03-27T09:27:26.390Z,55.10
2019-03-27T09:29:58.798Z,54.10
2019-03-27T09:32:30.272Z,54.50
2019-03-27T09:35:01.680Z,55.50
2019-03-27T09:37:33.758Z,53.60
2019-03-27T09:40:06.263Z,53.80
2019-03-27T09:42:37.992Z,54.00
2019-03-27T09:45:10.068Z,55.40
2019-03-27T09:47:43.278Z,56.50
2019-03-27T09:50:14.790Z,56.90
2019-03-27T09:52:46.845Z,56.40
2019-03-27T09:55:18.215Z,56.90
2019-03-27T09:57:49.987Z,55.40
2019-03-27T10:00:48.271Z,54.70
2019-03-27T10:03:20.341Z,54.30
2019-03-27T10:05:52.029Z,54.50
2019-03-27T10:08:23.760Z,55.40
2019-03-27T10:10:55.586Z,54.50
2019-03-27T10:13:27.050Z,55.30
2019-03-27T10:15:59.119Z,56.70
2019-03-27T10:18:30.258Z,55.50
2019-03-27T10:21:01.982Z,54.30
2019-03-27T10:23:34.030Z,52.30
2019-03-27T10:26:05.697Z,52.00
2019-03-27T10:28:37.239Z,51.10
2019-03-27T10:31:08.626Z,51.80
2019-03-27T10:33:40.096Z,51.80
2019-03-27T10:36:11.920Z,51.20
2019-03-27T10:38:43.894Z,52.30
2019-03-27T10:41:18.103Z,51.60
2019-03-27T10:43:49.828Z,52.30
2019-03-27T10:46:21.255Z,52.30
2019-03-27T10:48:53.293Z,53.80
2019-03-27T10:51:25.349Z,54.60
2019-03-27T10:53:57.423Z,55.80
2019-03-27T10:56:29.691Z,56.80
2019-03-27T10:59:01.482Z,56.50
2019-03-27T11:01:32.874Z,55.60
2019-03-27T11:04:05.070Z,55.50
2019-03-27T11:06:37.317Z,56.50
2019-03-27T11:09:10.879Z,56.10
2019-03-27T11:11:42.272Z,55.20
2019-03-27T11:14:13.999Z,54.10
2019-03-27T11:16:46.014Z,52.70
2019-03-27T11:19:17.530Z,49.80
2019-03-27T11:21:48.920Z,49.30
2019-03-27T11:24:20.398Z,48.70
2019-03-27T11:26:52.404Z,51.50
2019-03-27T11:29:25.489Z,51.30
2019-03-27T11:31:57.495Z,50.60
2019-03-27T11:34:29.260Z,51.30
2019-03-27T11:37:00.643Z,50.70
2019-03-27T11:39:32.177Z,50.90
2019-03-27T11:42:03.402Z,52.40
2019-03-27T11:44:35.508Z,52.30
2019-03-27T11:47:07.498Z,52.40
2019-03-27T11:49:39.854Z,52.00
2019-03-27T11:52:11.529Z,50.80
2019-03-27T11:54:43.566Z,49.70
2019-03-27T11:57:14.956Z,50.50
2019-03-27T11:59:53.826Z,50.30
2019-03-27T12:02:20.972Z,50.20
2019-03-27T12:04:53.283Z,51.80
2019-03-27T12:07:24.729Z,52.70
2019-03-27T12:09:57.133Z,53.90
2019-03-27T12:12:28.529Z,54.50
2019-03-27T12:15:00.384Z,54.90
2019-03-27T12:17:31.831Z,53.10
2019-03-27T12:20:03.286Z,50.20
2019-03-27T12:22:35.024Z,48.60
2019-03-27T12:25:06.505Z,46.80
2019-03-27T12:27:37.957Z,48.00
2019-03-27T12:30:09.959Z,48.20
2019-03-27T12:32:42.510Z,48.70
2019-03-27T12:35:14.730Z,47.40
2019-03-27T12:37:46.989Z,49.40
2019-03-27T12:40:18.580Z,50.20
2019-03-27T12:42:50.258Z,49.20
2019-03-27T12:45:21.978Z,49.80
2019-03-27T12:47:53.736Z,47.40
2019-03-27T12:50:25.215Z,47.70
2019-03-27T12:52:56.886Z,45.70
2019-03-27T12:55:28.663Z,47.00
2019-03-27T12:58:00.198Z,45.90
2019-03-27T13:00:32.486Z,45.70
2019-03-27T13:03:03.961Z,46.20
2019-03-27T13:05:35.968Z,46.40
2019-03-27T13:08:07.509Z,45.30
2019-03-27T13:10:38.609Z,45.80
2019-03-27T13:13:10.058Z,45.20
2019-03-27T13:15:41.765Z,46.60
2019-03-27T13:18:13.157Z,47.50
2019-03-27T13:20:44.835Z,47.20
2019-03-27T13:23:16.366Z,47.60
2019-03-27T13:25:48.377Z,46.10
2019-03-27T13:28:20.432Z,44.70
2019-03-27T13:30:52.140Z,45.40
2019-03-27T13:33:23.551Z,45.80
2019-03-27T13:35:55.304Z,44.80
2019-03-27T13:38:26.960Z,44.80
2019-03-27T13:40:59.019Z,44.30
2019-03-27T13:43:30.806Z,43.30
2019-03-27T13:46:03.242Z,43.30
2019-03-27T13:48:35.006Z,43.20
2019-03-27T13:51:07.311Z,42.30
2019-03-27T13:53:39.399Z,42.50
2019-03-27T13:56:10.912Z,41.70
2019-03-27T13:58:42.184Z,42.70
2019-03-27T14:01:14.173Z,42.80
2019-03-27T14:03:45.925Z,44.40
2019-03-27T14:06:19.054Z,45.20
2019-03-27T14:08:50.541Z,46.80
2019-03-27T14:11:21.913Z,44.40
2019-03-27T14:13:53.301Z,44.40
2019-03-27T14:16:24.727Z,44.30
2019-03-27T14:18:56.731Z,44.00
2019-03-27T14:21:29.084Z,43.80
2019-03-27T14:24:00.523Z,43.70
2019-03-27T14:26:44.556Z,42.00
2019-03-27T14:29:07.544Z,42.30
2019-03-27T14:31:39.276Z,42.90
2019-03-27T14:34:10.956Z,41.80
2019-03-27T14:36:42.591Z,43.00
2019-03-27T14:39:14.050Z,44.20
2019-03-27T14:41:45.698Z,44.10
2019-03-27T14:44:16.851Z,44.80
2019-03-27T14:46:49.014Z,45.80
2019-03-27T14:49:21.035Z,44.80
2019-03-27T14:51:52.447Z,44.20
2019-03-27T14:54:23.905Z,43.90
2019-03-27T14:56:56.205Z,43.20
2019-03-27T14:59:27.894Z,43.70
2019-03-27T15:01:59.003Z,43.80
2019-03-27T15:04:30.705Z,44.30
2019-03-27T15:07:02.421Z,44.60
2019-03-27T15:09:35.133Z,43.40
2019-03-27T15:12:06.862Z,44.70
2019-03-27T15:14:38.595Z,44.40
2019-03-27T15:17:10.060Z,45.10
2019-03-27T15:19:41.827Z,44.00
2019-03-27T15:22:22.198Z,43.00
2019-03-27T15:24:46.491Z,43.10
2019-03-27T15:27:18.564Z,42.50
2019-03-27T15:29:51.331Z,43.40
2019-03-27T15:32:23.445Z,42.60
2019-03-27T15:34:54.614Z,43.80
2019-03-27T15:37:26.081Z,43.10
2019-03-27T15:39:58.767Z,42.80
2019-03-27T15:42:30.507Z,41.60
2019-03-27T15:45:02.322Z,41.80
2019-03-27T15:47:33.695Z,41.00
2019-03-27T15:50:06.017Z,40.20
2019-03-27T15:52:37.873Z,41.90
2019-03-27T15:55:09.820Z,43.20
2019-03-27T15:57:41.989Z,42.90
2019-03-27T16:00:15.060Z,43.50
2019-03-27T16:02:56.528Z,42.20
2019-03-27T16:05:28.841Z,41.70
2019-03-27T16:08:00.307Z,42.10
2019-03-27T16:10:32.800Z,41.80
2019-03-27T16:13:04.364Z,42.00
2019-03-27T16:15:37.335Z,42.50
2019-03-27T16:18:10.158Z,42.60
2019-03-27T16:20:43.100Z,43.50
2019-03-27T16:23:15.989Z,43.50
2019-03-27T16:25:48.465Z,43.50
2019-03-27T16:28:20.666Z,42.40
2019-03-27T16:30:53.125Z,42.00
2019-03-27T16:33:25.378Z,41.60
2019-03-27T16:35:58.206Z,41.20
2019-03-27T16:38:29.961Z,40.90
2019-03-27T16:41:02.326Z,42.00
2019-03-27T16:43:34.721Z,43.20
2019-03-27T16:46:09.421Z,43.90
2019-03-27T16:48:41.639Z,44.00
2019-03-27T16:51:17.800Z,44.30
2019-03-27T16:53:49.898Z,44.90
2019-03-27T16:56:21.464Z,45.30
2019-03-27T16:58:53.171Z,45.10
2019-03-27T17:01:24.967Z,45.60
2019-03-27T17:03:57.344Z,45.90
2019-03-27T17:06:28.789Z,45.90
2019-03-27T17:09:01.563Z,47.00
2019-03-27T17:11:33.304Z,48.90
2019-03-27T17:14:05.051Z,50.30
2019-03-27T17:16:36.815Z,51.70
2019-03-27T17:19:08.869Z,52.40
2019-03-27T17:21:41.044Z,52.80
2019-03-27T17:24:12.705Z,53.40
2019-03-27T17:26:43.830Z,55.20
2019-03-27T17:29:15.869Z,55.50
2019-03-27T17:31:47.031Z,55.70
2019-03-27T17:34:19.182Z,56.30
2019-03-27T17:36:50.974Z,57.00
2019-03-27T17:39:23.077Z,58.00
2019-03-27T17:41:54.639Z,58.50
2019-03-27T17:44:26.795Z,59.10
2019-03-27T17:47:00.175Z,59.60
2019-03-27T17:49:32.409Z,60.10
2019-03-27T17:52:03.886Z,60.50
2019-03-27T17:54:35.249Z,60.90
2019-03-27T17:57:07.285Z,61.60
2019-03-27T17:59:39.719Z,61.60
2019-03-27T18:02:11.177Z,62.10
2019-03-27T18:04:42.345Z,63.00
2019-03-27T18:07:14.168Z,63.40
2019-03-27T18:09:49.555Z,63.70
2019-03-27T18:12:22.087Z,64.40
2019-03-27T18:14:53.840Z,64.50
2019-03-27T18:17:25.961Z,65.20
2019-03-27T18:19:57.748Z,66.00
2019-03-27T18:22:29.524Z,67.00
2019-03-27T18:25:02.459Z,66.90
2019-03-27T18:27:34.475Z,67.30
2019-03-27T18:30:07.077Z,67.90
2019-03-27T18:32:38.581Z,68.10
2019-03-27T18:35:11.710Z,68.10
2019-03-27T18:37:44.913Z,67.90
2019-03-27T18:40:16.293Z,68.40
2019-03-27T18:42:47.974Z,68.50
2019-03-27T18:45:19.662Z,68.30
2019-03-27T18:47:51.317Z,68.50
2019-03-27T18:50:23.052Z,69.00
2019-03-27T18:52:54.624Z,69.30
2019-03-27T18:55:27.215Z,69.30
2019-03-27T18:58:00.653Z,69.50
2019-03-27T19:00:32.400Z,70.30
2019-03-27T19:03:04.446Z,70.40
2019-03-27T19:05:38.359Z,71.00
2019-03-27T19:08:10.328Z,71.30
2019-03-27T19:10:43.200Z,71.50
2019-03-27T19:13:15.409Z,71.40
2019-03-27T19:15:46.826Z,71.40
2019-03-27T19:18:20.762Z,72.00
2019-03-27T19:20:54.393Z,72.30
2019-03-27T19:23:27.794Z,72.30
2019-03-27T19:26:04.760Z,72.30
2019-03-27T19:28:37.453Z,72.80
2019-03-27T19:31:09.318Z,72.90
2019-03-27T19:33:41.928Z,72.90
2019-03-27T19:36:19.279Z,73.20
2019-03-27T19:38:53.457Z,73.50
2019-03-27T19:41:27.671Z,74.00
2019-03-27T19:44:06.227Z,73.90
2019-03-27T19:46:38.403Z,73.90
2019-03-27T19:49:14.538Z,73.80
2019-03-27T19:51:50.562Z,74.30
2019-03-27T19:54:27.440Z,74.40
2019-03-27T19:56:57.459Z,74.90
2019-03-27T19:59:29.408Z,75.30
2019-03-27T20:02:01.521Z,76.00
2019-03-27T20:04:33.474Z,76.20
2019-03-27T20:07:05.226Z,76.10
2019-03-27T20:09:39.832Z,76.20
2019-03-27T20:12:11.892Z,77.20
2019-03-27T20:14:43.890Z,77.10
2019-03-27T20:17:18.898Z,77.40
2019-03-27T20:19:50.355Z,77.40
2019-03-27T20:22:21.556Z,77.70
2019-03-27T20:24:54.964Z,78.10
2019-03-27T20:27:27.308Z,78.40
2019-03-27T20:30:03.170Z,79.10
2019-03-27T20:32:35.250Z,79.30
2019-03-27T20:35:07.610Z,80.10
2019-03-27T20:37:39.250Z,80.70
2019-03-27T20:40:13.148Z,81.10
2019-03-27T20:42:45.245Z,81.80
2019-03-27T20:45:16.987Z,81.80
2019-03-27T20:47:49.394Z,82.20
2019-03-27T20:50:23.012Z,81.60
2019-03-27T20:53:09.807Z,81.30
2019-03-27T20:55:46.181Z,81.40
2019-03-27T20:58:17.979Z,80.30
2019-03-27T21:00:49.651Z,79.60
2019-03-27T21:03:23.982Z,79.70
2019-03-27T21:06:00.420Z,80.30
2019-03-27T21:08:32.772Z,81.10
2019-03-27T21:11:05.499Z,81.70
2019-03-27T21:13:40.893Z,82.30
2019-03-27T21:16:10.995Z,82.90
2019-03-27T21:18:42.414Z,83.40
2019-03-27T21:21:17.380Z,83.80
2019-03-27T21:23:54.986Z,84.20
2019-03-27T21:26:31.441Z,84.10
2019-03-27T21:29:07.867Z,84.20
2019-03-27T21:31:45.967Z,84.50
2019-03-27T21:34:22.324Z,85.10
2019-03-27T21:36:54.101Z,85.80
2019-03-27T21:39:26.465Z,86.20
2019-03-27T21:41:58.070Z,87.30
2019-03-27T21:44:30.019Z,87.00
2019-03-27T21:47:12.741Z,87.90
2019-03-27T21:49:51.643Z,88.60
2019-03-27T21:52:31.744Z,89.10
2019-03-27T21:55:05.698Z,89.30
2019-03-27T21:57:41.381Z,90.10
2019-03-27T22:00:13.377Z,90.50
2019-03-27T22:02:49.746Z,90.50
2019-03-27T22:05:21.671Z,90.70
2019-03-27T22:07:55.251Z,90.70
2019-03-27T22:10:29.389Z,90.80
2019-03-27T22:13:01.604Z,91.30
2019-03-27T22:15:33.542Z,91.80
2019-03-27T22:18:05.628Z,92.10
2019-03-27T22:20:39.677Z,92.30
2019-03-27T22:23:11.647Z,92.80
2019-03-27T22:25:43.355Z,93.50
2019-03-27T22:28:19.438Z,94.00
2019-03-27T22:30:51.679Z,94.40
2019-03-27T22:33:23.370Z,94.90
2019-03-27T22:35:54.805Z,95.70
2019-03-27T22:38:27.466Z,96.10
2019-03-27T22:40:59.239Z,97.20
2019-03-27T22:43:31.226Z,97.90
2019-03-27T22:46:03.319Z,98.30
2019-03-27T22:48:35.117Z,99.00
2019-03-27T22:51:07.199Z,99.30
2019-03-27T22:53:39.179Z,99.90
2019-03-27T22:56:11.375Z,99.90
2019-03-27T22:58:43.139Z,99.90
2019-03-27T23:01:15.668Z,99.90
2019-03-27T23:03:48.262Z,99.90
2019-03-27T23:06:20.463Z,99.90
2019-03-27T23:08:52.737Z,99.90
2019-03-27T23:11:24.508Z,99.90
2019-03-27T23:13:56.682Z,99.90
2019-03-27T23:16:28.829Z,99.90
2019-03-27T23:19:00.511Z,99.90
2019-03-27T23:21:38.286Z,99.90
2019-03-27T23:24:12.041Z,99.90
2019-03-27T23:26:44.064Z,99.90
2019-03-27T23:29:15.479Z,99.90
2019-03-27T23:31:48.431Z,99.90
2019-03-27T23:34:19.796Z,99.90
2019-03-27T23:36:52.360Z,99.90
2019-03-27T23:39:42.952Z,99.90
2019-03-27T23:42:16.484Z,99.90
2019-03-27T23:44:48.720Z,99.90
2019-03-27T23:47:20.136Z,99.90
2019-03-27T23:49:51.825Z,99.90
2019-03-27T23:52:23.519Z,99.90
2019-03-27T23:54:56.091Z,99.90
2019-03-27T23:57:27.489Z,99.90
2019-03-27T23:59:59.771Z,99.90
